Time;durP1;ratioP1;P1;durP2;ratioP2;P2;SDS_P1;SDS_P2;PMS_P1;PMS_P2;Temp;Humidity;BMP_temperature;BMP_pressure;BME280_temperature;BME280_humidity;BME280_pressure;Samples;Min_cycle;Max_cycle;Signal;HPM_P1;HPM_P2
2022/10/11 00:00:33;;;;;;;2.25;2.15;;;13.70;99.90;;;;;;5081303;28;20276;-77
2022/10/11 00:03:00;;;;;;;2.67;2.55;;;13.70;99.90;;;;;;5080608;28;20490;-77
2022/10/11 00:05:26;;;;;;;1.52;1.42;;;13.70;99.90;;;;;;5082211;28;20039;-79
2022/10/11 00:07:52;;;;;;;2.40;2.30;;;13.80;99.90;;;;;;5083352;28;20027;-78
2022/10/11 00:10:18;;;;;;;0.28;0.28;;;13.80;99.90;;;;;;5066482;28;20028;-86
2022/10/11 00:12:45;;;;;;;0.10;0.10;;;13.80;99.90;;;;;;5086475;28;20133;-80
2022/10/11 00:15:15;;;;;;;1.10;1.10;;;13.70;99.90;;;;;;5083809;28;20024;-78
2022/10/11 00:17:41;;;;;;;0.20;0.20;;;13.70;99.90;;;;;;5066798;28;20026;-79
2022/10/11 00:20:07;;;;;;;4.65;4.22;;;13.80;99.90;;;;;;5084976;28;20095;-81
2022/10/11 00:22:35;;;;;;;1.95;1.88;;;13.70;99.90;;;;;;5063939;28;20024;-80
2022/10/11 00:25:01;;;;;;;0.55;0.55;;;13.70;99.90;;;;;;5081069;28;20116;-77
2022/10/11 00:27:27;;;;;;;11.27;10.73;;;13.70;99.90;;;;;;5062900;28;20123;-77
2022/10/11 00:29:53;;;;;;;0.68;0.68;;;13.70;99.90;;;;;;5062057;28;20070;-89
2022/10/11 00:32:19;;;;;;;2.05;1.95;;;13.60;99.90;;;;;;5079933;28;20024;-81
2022/10/11 00:34:44;;;;;;;0.20;0.20;;;13.60;99.90;;;;;;5079876;28;20051;-79
2022/10/11 00:37:10;;;;;;;0.40;0.40;;;13.50;99.90;;;;;;5061990;28;20400;-88
2022/10/11 00:39:36;;;;;;;0.20;0.20;;;13.50;99.90;;;;;;5080458;28;20413;-91
2022/10/11 00:42:02;;;;;;;1.48;1.45;;;13.50;99.90;;;;;;5061332;28;20119;-80
2022/10/11 00:44:28;;;;;;;1.95;1.85;;;13.60;99.90;;;;;;5079620;28;20032;-78
2022/10/11 00:47:00;;;;;;;5.63;5.28;;;13.50;99.90;;;;;;5083005;28;20093;-78
2022/10/11 00:49:39;;;;;;;12.15;11.27;;;13.50;99.90;;;;;;5086152;28;20020;-77
2022/10/11 00:52:36;;;;;;;0.73;0.73;;;13.50;99.90;;;;;;5067470;28;20020;-80
2022/10/11 00:55:11;;;;;;;0.57;0.57;;;13.50;99.90;;;;;;5064017;28;20313;-75
2022/10/11 00:57:41;;;;;;;0.20;0.20;;;13.50;99.90;;;;;;5079872;28;20135;-80
2022/10/11 01:00:10;;;;;;;0.20;0.20;;;13.50;99.90;;;;;;5080045;28;20284;-88
2022/10/11 01:02:37;;;;;;;1.40;1.38;;;13.50;99.90;;;;;;5060884;28;20024;-81
2022/10/11 01:05:04;;;;;;;0.40;0.40;;;13.50;99.90;;;;;;5079554;28;20031;-80
2022/10/11 01:07:32;;;;;;;1.25;1.25;;;13.50;99.90;;;;;;5078954;28;20016;-78
2022/10/11 01:09:58;;;;;;;0.32;0.32;;;13.40;99.90;;;;;;5079428;28;20020;-89
2022/10/11 01:12:26;;;;;;;0.50;0.50;;;13.50;99.90;;;;;;5060749;28;20479;-79
2022/10/11 01:15:14;;;;;;;2.22;2.13;;;13.50;99.90;;;;;;5079651;28;20079;-84
2022/10/11 01:17:54;;;;;;;0.65;0.65;;;13.40;99.90;;;;;;5078952;28;20070;-78
2022/10/11 01:20:47;;;;;;;0.10;0.10;;;13.50;99.90;;;;;;5061482;28;20021;-85
2022/10/11 01:23:34;;;;;;;0.20;0.20;;;13.40;99.90;;;;;;5075385;28;20044;-87
2022/10/11 01:26:39;;;;;;;0.25;0.25;;;13.40;99.90;;;;;;5079514;28;20076;-78
2022/10/11 01:29:22;;;;;;;0.10;0.10;;;13.50;99.90;;;;;;5079286;28;20030;-82
2022/10/11 01:31:57;;;;;;;0.30;0.30;;;13.50;99.90;;;;;;5079374;28;20023;-76
2022/10/11 01:34:42;;;;;;;0.20;0.20;;;13.40;99.90;;;;;;5078772;28;20131;-89
2022/10/11 01:37:18;;;;;;;1.08;1.08;;;13.40;99.90;;;;;;5060606;28;20024;-80
2022/10/11 01:40:00;;;;;;;2.25;2.15;;;13.50;99.90;;;;;;5079015;28;20024;-77
2022/10/11 01:42:27;;;;;;;14.45;6.95;;;13.50;99.90;;;;;;5060767;28;20177;-81
2022/10/11 01:44:54;;;;;;;1.83;1.75;;;13.50;99.90;;;;;;5078847;28;20036;-77
2022/10/11 01:47:22;;;;;;;3.15;2.95;;;13.50;99.90;;;;;;5078148;28;20019;-77
2022/10/11 01:49:57;;;;;;;1.40;1.38;;;13.50;99.90;;;;;;5060629;28;20043;-79
2022/10/11 01:52:24;;;;;;;0.20;0.20;;;13.50;99.90;;;;;;5078308;28;20016;-78
2022/10/11 01:55:18;;;;;;;3.50;3.38;;;13.50;99.90;;;;;;5079001;28;20043;-77
2022/10/11 01:58:14;;;;;;;1.35;1.35;;;13.40;99.90;;;;;;5078126;28;20108;-80
2022/10/11 02:00:54;;;;;;;2.40;2.30;;;13.40;99.90;;;;;;5078929;28;20099;-77
2022/10/11 02:03:30;;;;;;;0.22;0.22;;;13.30;99.90;;;;;;5078892;28;20514;-88
2022/10/11 02:06:16;;;;;;;2.83;2.72;;;13.30;99.90;;;;;;5078515;28;20071;-78
2022/10/11 02:09:06;;;;;;;2.80;2.70;;;13.40;99.90;;;;;;5078880;28;20100;-83
2022/10/11 02:11:33;;;;;;;3.55;3.35;;;13.30;99.90;;;;;;5085715;28;20288;-80
2022/10/11 02:14:10;;;;;;;0.32;0.32;;;13.30;99.90;;;;;;5069223;28;20020;-88
2022/10/11 02:17:00;;;;;;;0.35;0.35;;;13.30;99.90;;;;;;5088003;28;20022;-79
2022/10/11 02:19:28;;;;;;;1.58;1.48;;;13.40;99.90;;;;;;5089231;28;20506;-80
2022/10/11 02:22:00;;;;;;;5.43;4.95;;;13.40;99.90;;;;;;5067082;28;20324;-85
2022/10/11 02:24:32;;;;;;;0.45;0.45;;;13.40;99.90;;;;;;5064003;28;20666;-81
2022/10/11 02:27:00;;;;;;;0.88;0.88;;;13.40;99.90;;;;;;5084543;28;20024;-84
2022/10/11 02:29:29;;;;;;;0.88;0.88;;;13.40;99.90;;;;;;5066280;28;20024;-90
2022/10/11 02:31:57;;;;;;;0.85;0.85;;;13.50;99.90;;;;;;5080726;28;20058;-77
2022/10/11 02:34:25;;;;;;;2.55;2.38;;;13.40;99.90;;;;;;5078904;28;20060;-78
2022/10/11 02:37:07;;;;;;;0.10;0.10;;;13.40;99.90;;;;;;5060959;28;20444;-80
2022/10/11 02:39:42;;;;;;;1.33;1.33;;;13.40;99.90;;;;;;5078556;28;20020;-79
2022/10/11 02:42:16;;;;;;;0.40;0.40;;;13.40;99.90;;;;;;5079493;28;20089;-77
2022/10/11 02:44:59;;;;;;;0.30;0.30;;;13.40;99.90;;;;;;5079221;28;20387;-78
2022/10/11 02:47:28;;;;;;;0.20;0.20;;;13.50;99.90;;;;;;5060862;28;20027;-78
2022/10/11 02:49:54;;;;;;;0.47;0.47;;;13.40;99.90;;;;;;5077961;28;20039;-81
2022/10/11 02:52:19;;;;;;;0.20;0.20;;;13.40;99.90;;;;;;5078323;28;20230;-87
2022/10/11 02:54:45;;;;;;;3.47;3.25;;;13.40;99.90;;;;;;5060129;28;20319;-79
2022/10/11 02:57:11;;;;;;;0.75;0.75;;;13.40;99.90;;;;;;5078453;28;20024;-92
2022/10/11 02:59:37;;;;;;;2.83;2.70;;;13.40;99.90;;;;;;5077939;28;20133;-85
2022/10/11 03:02:02;;;;;;;2.47;2.38;;;13.40;99.90;;;;;;5077951;28;20220;-81
2022/10/11 03:04:28;;;;;;;2.00;1.90;;;13.40;99.90;;;;;;5077637;28;20044;-77
2022/10/11 03:06:54;;;;;;;0.10;0.10;;;13.40;99.90;;;;;;5077956;28;20406;-82
2022/10/11 03:09:19;;;;;;;0.28;0.28;;;13.40;99.90;;;;;;5059516;28;20028;-84
2022/10/11 03:11:45;;;;;;;0.20;0.20;;;13.40;99.90;;;;;;5082121;28;20422;-84
2022/10/11 03:14:11;;;;;;;5.45;2.97;;;13.40;99.90;;;;;;5081966;28;20032;-79
2022/10/11 03:16:37;;;;;;;0.10;0.10;;;13.40;99.90;;;;;;5081639;28;20109;-78
2022/10/11 03:19:02;;;;;;;0.20;0.20;;;13.40;99.90;;;;;;5062613;28;20062;-79
2022/10/11 03:21:28;;;;;;;0.47;0.47;;;13.50;99.90;;;;;;5062588;28;20123;-77
2022/10/11 03:23:54;;;;;;;0.20;0.20;;;13.50;99.90;;;;;;5063548;28;20511;-78
2022/10/11 03:26:20;;;;;;;0.20;0.20;;;13.40;99.90;;;;;;5081355;28;20027;-80
2022/10/11 03:28:46;;;;;;;0.20;0.20;;;13.40;99.90;;;;;;5081895;28;20270;-77
2022/10/11 03:31:11;;;;;;;2.28;2.13;;;13.40;99.90;;;;;;5081338;28;20012;-77
2022/10/11 03:33:37;;;;;;;4.32;4.13;;;13.40;99.90;;;;;;5080806;28;20040;-77
2022/10/11 03:36:03;;;;;;;0.15;0.15;;;13.40;99.90;;;;;;5068737;28;20063;-78
2022/10/11 03:38:29;;;;;;;1.42;1.38;;;13.40;99.90;;;;;;5085986;28;20459;-87
2022/10/11 03:40:55;;;;;;;3.70;2.35;;;13.40;99.90;;;;;;5067972;28;20066;-77
2022/10/11 03:43:20;;;;;;;0.22;0.22;;;13.40;99.90;;;;;;5089090;28;20076;-84
2022/10/11 03:45:46;;;;;;;0.50;0.50;;;13.30;99.90;;;;;;5084021;28;20475;-78
2022/10/11 03:48:12;;;;;;;0.52;0.52;;;13.30;99.90;;;;;;5082359;28;20304;-80
2022/10/11 03:50:38;;;;;;;4.32;3.95;;;13.30;99.90;;;;;;5063114;28;20142;-77
2022/10/11 03:53:05;;;;;;;0.50;0.50;;;13.30;99.90;;;;;;5081150;28;20250;-86
2022/10/11 03:55:31;;;;;;;0.30;0.30;;;13.30;99.90;;;;;;5080744;28;20320;-82
2022/10/11 03:57:56;;;;;;;0.20;0.20;;;13.30;99.90;;;;;;5080836;28;20620;-78
2022/10/11 04:00:22;;;;;;;0.20;0.20;;;13.30;99.90;;;;;;5081062;28;20024;-79
2022/10/11 04:02:48;;;;;;;0.82;0.82;;;13.30;99.90;;;;;;5062322;28;20032;-80
2022/10/11 04:05:14;;;;;;;0.20;0.20;;;13.40;99.90;;;;;;5062636;28;20673;-77
2022/10/11 04:07:40;;;;;;;0.73;0.73;;;13.30;99.90;;;;;;5080329;28;20055;-81
2022/10/11 04:10:06;;;;;;;0.20;0.20;;;13.30;99.90;;;;;;5080547;28;20113;-85
2022/10/11 04:12:32;;;;;;;1.30;1.27;;;13.30;99.90;;;;;;5061862;28;20016;-78
2022/10/11 04:14:58;;;;;;;1.15;1.15;;;13.30;99.90;;;;;;5080465;28;20114;-77
2022/10/11 04:17:24;;;;;;;0.20;0.20;;;13.30;99.90;;;;;;5080856;28;20058;-78
2022/10/11 04:19:49;;;;;;;0.20;0.20;;;13.30;99.90;;;;;;5080458;28;20533;-77
2022/10/11 04:22:16;;;;;;;2.70;2.60;;;13.40;99.90;;;;;;5080527;28;20095;-78
2022/10/11 04:24:42;;;;;;;0.20;0.20;;;13.30;99.90;;;;;;5079936;28;20024;-80
2022/10/11 04:27:08;;;;;;;2.80;2.70;;;13.30;99.90;;;;;;5080035;28;20563;-78
2022/10/11 04:29:34;;;;;;;0.65;0.65;;;13.30;99.90;;;;;;5079650;28;20024;-78
2022/10/11 04:31:59;;;;;;;0.82;0.82;;;13.30;99.90;;;;;;5080182;28;20066;-84
2022/10/11 04:34:25;;;;;;;2.75;2.65;;;13.30;99.90;;;;;;5080060;28;20304;-80
2022/10/11 04:36:51;;;;;;;2.83;2.70;;;13.30;99.90;;;;;;5079959;28;20024;-78
2022/10/11 04:39:17;;;;;;;1.02;1.02;;;13.30;99.90;;;;;;5079882;28;20020;-78
2022/10/11 04:41:42;;;;;;;0.28;0.28;;;13.30;99.90;;;;;;5064958;28;20020;-84
2022/10/11 04:44:08;;;;;;;0.10;0.10;;;13.40;99.90;;;;;;5083043;28;20338;-83
2022/10/11 04:46:34;;;;;;;10.05;9.15;;;13.40;99.90;;;;;;5063214;28;20071;-78
2022/10/11 04:49:00;;;;;;;0.68;0.68;;;13.40;99.90;;;;;;5083497;28;20331;-78
2022/10/11 04:51:26;;;;;;;0.77;0.75;;;13.40;99.90;;;;;;5080265;28;20424;-80
2022/10/11 04:53:52;;;;;;;0.88;0.88;;;13.40;99.90;;;;;;5080561;28;20212;-81
2022/10/11 04:56:18;;;;;;;0.32;0.32;;;13.30;99.90;;;;;;5061562;28;20026;-79
2022/10/11 04:58:47;;;;;;;0.30;0.30;;;13.30;99.90;;;;;;5061277;28;20466;-86
2022/10/11 05:01:12;;;;;;;0.20;0.20;;;13.30;99.90;;;;;;5062349;28;20028;-84
2022/10/11 05:03:38;;;;;;;0.20;0.20;;;13.40;99.90;;;;;;5080648;28;20304;-77
2022/10/11 05:06:04;;;;;;;0.30;0.30;;;13.40;99.90;;;;;;5080650;28;20426;-78
2022/10/11 05:08:30;;;;;;;0.85;0.85;;;13.30;99.90;;;;;;5079731;28;20095;-79
2022/10/11 05:10:58;;;;;;;5.18;3.63;;;13.30;99.90;;;;;;5079497;28;20170;-83
2022/10/11 05:13:25;;;;;;;0.30;0.30;;;13.30;99.90;;;;;;5079635;28;20051;-80
2022/10/11 05:15:51;;;;;;;0.20;0.20;;;13.30;99.90;;;;;;5078550;28;20059;-79
2022/10/11 05:18:16;;;;;;;1.42;0.82;;;13.30;99.90;;;;;;5079011;28;20070;-80
2022/10/11 05:20:42;;;;;;;0.20;0.20;;;13.30;99.90;;;;;;5060860;28;20016;-78
2022/10/11 05:23:08;;;;;;;0.90;0.90;;;13.30;99.90;;;;;;5078796;28;20602;-77
2022/10/11 05:25:34;;;;;;;26.88;5.18;;;13.30;99.90;;;;;;5078478;28;20383;-77
2022/10/11 05:28:00;;;;;;;0.30;0.30;;;13.30;99.90;;;;;;5078304;28;20518;-84
2022/10/11 05:30:26;;;;;;;0.10;0.10;;;13.30;99.90;;;;;;5060634;28;20133;-77
2022/10/11 05:32:52;;;;;;;0.20;0.20;;;13.30;99.90;;;;;;5078645;28;20043;-86
2022/10/11 05:35:17;;;;;;;0.20;0.20;;;13.30;99.90;;;;;;5079096;28;20048;-79
2022/10/11 05:37:43;;;;;;;0.22;0.22;;;13.30;99.90;;;;;;5078939;28;20028;-80
2022/10/11 05:40:10;;;;;;;0.20;0.20;;;13.30;99.90;;;;;;5078319;28;20028;-81
2022/10/11 05:42:36;;;;;;;0.10;0.10;;;13.30;99.90;;;;;;5078281;28;20012;-85
2022/10/11 05:45:04;;;;;;;0.20;0.20;;;13.40;99.90;;;;;;5079114;28;20304;-90
2022/10/11 05:47:30;;;;;;;0.30;0.30;;;13.40;99.90;;;;;;5060386;28;20107;-79
2022/10/11 05:49:55;;;;;;;0.15;0.15;;;13.40;99.90;;;;;;5079184;28;20112;-83
2022/10/11 05:52:21;;;;;;;0.25;0.25;;;13.40;99.90;;;;;;5060786;28;20216;-77
2022/10/11 05:54:47;;;;;;;0.28;0.28;;;13.50;99.90;;;;;;5078513;28;20028;-78
2022/10/11 05:57:13;;;;;;;4.20;2.92;;;13.50;99.90;;;;;;5078340;28;20414;-79
2022/10/11 05:59:39;;;;;;;0.57;0.57;;;13.50;99.90;;;;;;5060553;28;20025;-83
2022/10/11 06:02:05;;;;;;;0.28;0.28;;;13.60;99.90;;;;;;5078532;28;20720;-79
2022/10/11 06:04:36;;;;;;;1.00;1.00;;;13.60;99.90;;;;;;5079030;28;20108;-78
2022/10/11 06:07:02;;;;;;;5.10;4.68;;;13.60;99.90;;;;;;5078216;28;20016;-77
2022/10/11 06:09:29;;;;;;;2.30;2.20;;;13.60;99.90;;;;;;5061526;28;20041;-81
2022/10/11 06:11:55;;;;;;;1.55;1.55;;;13.70;99.90;;;;;;5060362;28;20020;-79
2022/10/11 06:14:23;;;;;;;0.65;0.65;;;13.90;99.90;;;;;;5201875;22;20670;-82
2022/10/11 06:16:48;;;;;;;0.95;0.95;;;13.80;99.90;;;;;;5018361;28;20025;-79
2022/10/11 06:19:14;;;;;;;0.20;0.20;;;13.90;99.90;;;;;;5172615;23;20057;-82
2022/10/11 06:21:40;;;;;;;0.20;0.20;;;14.00;99.90;;;;;;4981115;28;20018;-79
2022/10/11 06:24:08;;;;;;;0.30;0.30;;;14.00;99.90;;;;;;4981676;28;20303;-77
2022/10/11 06:26:33;;;;;;;0.20;0.20;;;14.10;99.90;;;;;;4979417;28;20112;-77
2022/10/11 06:28:59;;;;;;;0.20;0.20;;;14.20;99.90;;;;;;4981246;28;20066;-78
2022/10/11 06:31:28;;;;;;;0.20;0.20;;;14.20;99.90;;;;;;4999481;28;20582;-86
2022/10/11 06:33:54;;;;;;;1.13;1.10;;;14.20;99.90;;;;;;4998372;28;20353;-78
2022/10/11 06:36:23;;;;;;;0.80;0.80;;;14.40;99.90;;;;;;4980636;28;20560;-88
2022/10/11 06:38:51;;;;;;;0.55;0.55;;;14.40;99.90;;;;;;4981146;28;20527;-79
2022/10/11 06:41:23;;;;;;;0.22;0.22;;;14.40;99.90;;;;;;4980215;28;20164;-80
2022/10/11 06:43:50;;;;;;;1.52;1.45;;;14.50;99.90;;;;;;4997197;28;20030;-84
2022/10/11 06:46:17;;;;;;;0.30;0.30;;;14.50;99.90;;;;;;4999870;28;20022;-83
2022/10/11 06:48:45;;;;;;;0.73;0.73;;;14.50;99.90;;;;;;5001120;28;20029;-78
2022/10/11 06:51:12;;;;;;;0.10;0.10;;;14.50;99.90;;;;;;4983970;28;20339;-78
2022/10/11 06:53:38;;;;;;;0.10;0.10;;;14.60;99.90;;;;;;5000975;28;20061;-78
2022/10/11 06:56:09;;;;;;;0.20;0.20;;;14.70;99.90;;;;;;4983239;28;20083;-79
2022/10/11 06:58:36;;;;;;;1.33;1.30;;;14.70;99.90;;;;;;4984035;28;20473;-78
2022/10/11 07:01:03;;;;;;;0.22;0.22;;;14.90;99.90;;;;;;4986262;28;20375;-80
2022/10/11 07:03:30;;;;;;;1.23;1.23;;;14.90;99.90;;;;;;5006119;28;20026;-75
2022/10/11 07:06:06;;;;;;;0.20;0.20;;;15.00;99.90;;;;;;4988274;28;20562;-76
2022/10/11 07:08:33;;;;;;;0.20;0.20;;;15.10;99.90;;;;;;5006230;28;20346;-79
2022/10/11 07:11:04;;;;;;;3.70;3.45;;;15.00;99.90;;;;;;4986047;28;20029;-80
2022/10/11 07:13:30;;;;;;;4.28;4.03;;;15.10;99.90;;;;;;5002863;28;20216;-85
2022/10/11 07:15:56;;;;;;;0.20;0.20;;;15.20;99.90;;;;;;5002275;28;20033;-83
2022/10/11 07:18:22;;;;;;;0.50;0.50;;;15.20;99.90;;;;;;4985921;28;20045;-82
2022/10/11 07:20:48;;;;;;;3.80;3.60;;;15.40;99.90;;;;;;5002744;28;20061;-87
2022/10/11 07:23:15;;;;;;;0.95;0.95;;;15.50;99.90;;;;;;4985429;28;20045;-81
2022/10/11 07:25:41;;;;;;;2.15;1.95;;;15.50;99.90;;;;;;5003159;28;20417;-83
2022/10/11 07:28:06;;;;;;;0.30;0.30;;;15.60;99.90;;;;;;5003487;28;20024;-82
2022/10/11 07:30:32;;;;;;;5.10;4.65;;;15.70;99.90;;;;;;5003625;28;20037;-76
2022/10/11 07:32:58;;;;;;;1.35;1.30;;;15.70;99.90;;;;;;5003595;28;20026;-76
2022/10/11 07:35:24;;;;;;;3.47;3.05;;;15.80;99.90;;;;;;5002979;28;20052;-84
2022/10/11 07:37:49;;;;;;;0.82;0.82;;;15.80;99.90;;;;;;5003355;28;20022;-85
2022/10/11 07:40:15;;;;;;;5.22;2.17;;;15.80;99.90;;;;;;5004267;28;20037;-88
2022/10/11 07:42:41;;;;;;;2.00;1.90;;;15.80;99.90;;;;;;4986172;28;20025;-84
2022/10/11 07:45:07;;;;;;;3.53;1.80;;;15.90;99.90;;;;;;5003218;28;20041;-78
2022/10/11 07:47:33;;;;;;;0.43;0.43;;;15.90;99.90;;;;;;4985714;28;20049;-80
2022/10/11 07:49:58;;;;;;;0.82;0.82;;;16.00;99.90;;;;;;4985576;28;20069;-80
2022/10/11 07:52:24;;;;;;;2.45;2.05;;;16.00;99.90;;;;;;4984220;28;20022;-78
2022/10/11 07:54:50;;;;;;;2.78;2.58;;;16.10;99.90;;;;;;5004720;28;20391;-83
2022/10/11 07:57:16;;;;;;;7.90;5.97;;;16.00;99.90;;;;;;4983928;28;20029;-90
2022/10/11 07:59:42;;;;;;;1.70;1.60;;;16.10;99.90;;;;;;4988162;28;20032;-82
2022/10/11 08:02:12;;;;;;;1.10;1.05;;;16.00;99.90;;;;;;4986369;28;20058;-81
2022/10/11 08:04:38;;;;;;;8.30;7.65;;;16.20;99.90;;;;;;4984031;28;20137;-87
2022/10/11 08:07:04;;;;;;;5.95;5.68;;;16.20;99.90;;;;;;5001708;28;20048;-91
2022/10/11 08:09:30;;;;;;;0.30;0.30;;;16.30;99.90;;;;;;4984047;28;20030;-79
2022/10/11 08:11:56;;;;;;;0.43;0.43;;;16.30;99.90;;;;;;4983298;28;20129;-77
2022/10/11 08:14:22;;;;;;;0.10;0.10;;;16.20;99.90;;;;;;5001554;28;20101;-76
2022/10/11 08:16:48;;;;;;;4.97;4.70;;;16.30;99.90;;;;;;5002001;28;20090;-75
2022/10/11 08:19:15;;;;;;;2.63;2.42;;;16.30;99.90;;;;;;5000706;28;20057;-78
2022/10/11 08:21:40;;;;;;;2.55;2.45;;;16.40;99.90;;;;;;5004662;28;20105;-78
2022/10/11 08:24:13;;;;;;;0.73;0.73;;;16.50;99.90;;;;;;5004693;28;20118;-85
2022/10/11 08:26:40;;;;;;;1.85;1.75;;;16.30;99.90;;;;;;4988897;28;20022;-75
2022/10/11 08:29:06;;;;;;;6.18;5.85;;;16.30;99.90;;;;;;4988899;28;20468;-77
2022/10/11 08:31:33;;;;;;;7.05;6.65;;;16.60;99.90;;;;;;5006066;28;20030;-80
2022/10/11 08:33:59;;;;;;;0.20;0.20;;;16.60;99.90;;;;;;4987381;28;20030;-78
2022/10/11 08:36:24;;;;;;;2.63;2.53;;;16.80;99.90;;;;;;5007638;28;20096;-87
2022/10/11 08:38:50;;;;;;;1.42;1.27;;;17.00;99.90;;;;;;4990737;28;20020;-77
2022/10/11 08:41:27;;;;;;;2.38;2.25;;;17.30;99.90;;;;;;5006522;28;20328;-76
2022/10/11 08:44:19;;;;;;;3.53;3.22;;;17.50;99.90;;;;;;4987388;28;20545;-92
2022/10/11 08:46:50;;;;;;;0.95;0.95;;;17.60;99.90;;;;;;4971557;28;20069;-76
2022/10/11 08:49:20;;;;;;;3.30;3.10;;;17.60;99.90;;;;;;5001103;28;20397;-80
2022/10/11 08:51:51;;;;;;;1.23;1.17;;;17.70;99.90;;;;;;4982871;28;20398;-77
2022/10/11 08:54:31;;;;;;;2.42;1.05;;;17.60;99.90;;;;;;5002287;28;20060;-80
2022/10/11 08:56:57;;;;;;;1.80;1.70;;;17.40;99.90;;;;;;5001213;28;20048;-79
2022/10/11 08:59:56;;;;;;;1.83;1.73;;;17.20;99.90;;;;;;4985047;28;20022;-83
2022/10/11 09:02:33;;;;;;;1.85;1.38;;;17.20;99.90;;;;;;4921007;29;20032;-78
2022/10/11 09:05:01;;;;;;;3.30;2.03;;;17.00;99.90;;;;;;4920558;29;20184;-78
2022/10/11 09:08:04;;;;;;;0.95;0.95;;;18.90;99.90;;;;;;4922706;29;20261;-78
2022/10/11 09:10:54;;;;;;;1.10;0.95;;;16.80;99.90;;;;;;4923100;29;20024;-78
2022/10/11 09:13:33;;;;;;;2.15;2.03;;;16.80;99.90;;;;;;4922796;29;20448;-77
2022/10/11 09:16:30;;;;;;;1.25;1.25;;;16.80;99.90;;;;;;4922378;29;20082;-78
2022/10/11 09:19:27;;;;;;;0.65;0.65;;;16.90;99.90;;;;;;4921907;29;20589;-76
2022/10/11 09:22:34;;;;;;;4.43;4.20;;;16.90;99.90;;;;;;4907359;29;20356;-80
2022/10/11 09:25:43;;;;;;;2.72;2.55;;;17.00;99.90;;;;;;4866625;29;20536;-82
2022/10/11 09:28:30;;;;;;;1.85;1.75;;;17.10;99.90;;;;;;4848397;29;20481;-79
2022/10/11 09:30:59;;;;;;;0.93;0.93;;;17.10;99.90;;;;;;4847068;29;20040;-92
2022/10/11 09:33:38;;;;;;;11.70;10.73;;;17.00;99.90;;;;;;4843891;29;20676;-80
2022/10/11 09:36:22;;;;;;;0.88;0.88;;;17.00;99.90;;;;;;4845079;29;20037;-91
2022/10/11 09:39:00;;;;;;;4.15;3.85;;;16.90;99.90;;;;;;4875864;29;20121;-85
2022/10/11 09:41:49;;;;;;;4.10;3.25;;;16.60;99.90;;;;;;4881065;29;20044;-77
2022/10/11 09:44:24;;;;;;;0.30;0.30;;;17.10;99.90;;;;;;4867769;29;20083;-76
2022/10/11 09:46:52;;;;;;;0.82;0.80;;;16.50;99.90;;;;;;4881839;29;20257;-77
2022/10/11 09:49:23;;;;;;;4.90;4.65;;;16.40;99.90;;;;;;4869435;29;20049;-77
2022/10/11 09:52:15;;;;;;;1.58;1.48;;;16.30;99.90;;;;;;4883794;29;20124;-77
2022/10/11 09:55:03;;;;;;;3.40;2.65;;;16.30;99.90;;;;;;4883748;29;20056;-75
2022/10/11 09:57:32;;;;;;;4.20;3.95;;;16.40;99.90;;;;;;4971447;23;20495;-81
2022/10/11 10:00:32;;;;;;;6.68;6.28;;;16.50;99.90;;;;;;5059433;28;20378;-84
2022/10/11 10:03:26;;;;;;;3.33;2.80;;;16.60;99.90;;;;;;5061887;28;20028;-76
2022/10/11 10:06:21;;;;;;;0.32;0.32;;;15.70;99.90;;;;;;5059624;28;20388;-85
2022/10/11 10:08:46;;;;;;;0.30;0.30;;;17.30;99.90;;;;;;5058666;28;20020;-76
2022/10/11 10:11:13;;;;;;;3.53;3.33;;;16.70;99.90;;;;;;5058327;28;20126;-78
2022/10/11 10:13:59;;;;;;;4.85;4.57;;;16.70;99.90;;;;;;5059501;28;20107;-78
2022/10/11 10:16:27;;;;;;;7.55;7.03;;;16.60;99.90;;;;;;5059936;28;20041;-77
2022/10/11 10:19:20;;;;;;;0.60;0.60;;;16.60;99.90;;;;;;5059153;28;20307;-87
2022/10/11 10:21:49;;;;;;;0.40;0.40;;;16.40;99.90;;;;;;5060466;28;20100;-76
2022/10/11 10:24:40;;;;;;;3.40;3.17;;;16.40;99.90;;;;;;5060907;28;20514;-83
2022/10/11 10:27:20;;;;;;;0.45;0.35;;;16.70;99.90;;;;;;5041692;28;20025;-78
2022/10/11 10:30:18;;;;;;;0.43;0.43;;;16.10;99.90;;;;;;5040624;28;20033;-78
2022/10/11 10:33:15;;;;;;;2.15;2.05;;;16.00;99.90;;;;;;4983465;28;20319;-82
2022/10/11 10:35:51;;;;;;;0.90;0.90;;;15.90;99.90;;;;;;4981120;28;20026;-76
2022/10/11 10:38:42;;;;;;;1.17;1.13;;;15.90;99.90;;;;;;4981617;28;20022;-83
2022/10/11 10:41:14;;;;;;;0.10;0.10;;;15.80;99.90;;;;;;4961424;28;20182;-76
2022/10/11 10:43:42;;;;;;;1.50;1.40;;;15.80;99.90;;;;;;4978550;28;20047;-76
2022/10/11 10:46:29;;;;;;;0.57;0.57;;;15.70;99.90;;;;;;4977894;28;20062;-78
2022/10/11 10:49:10;;;;;;;1.73;1.63;;;15.70;99.90;;;;;;4977089;28;20038;-76
2022/10/11 10:51:56;;;;;;;2.60;2.45;;;15.70;99.90;;;;;;4977276;28;20022;-83
2022/10/11 10:54:38;;;;;;;0.45;0.45;;;15.70;99.90;;;;;;4981958;28;20268;-77
2022/10/11 10:57:32;;;;;;;2.92;2.75;;;15.70;99.90;;;;;;4988114;28;20224;-76
2022/10/11 10:59:58;;;;;;;;;;;15.60;99.90;;;;;;4968528;28;20170;-80
2022/10/11 11:02:57;;;;;;;0.17;0.17;;;15.70;99.90;;;;;;4988852;28;19905;-76
2022/10/11 11:06:00;;;;;;;3.53;3.33;;;15.60;99.90;;;;;;4925788;29;20083;-76
2022/10/11 11:08:52;;;;;;;1.40;1.38;;;15.60;99.90;;;;;;4916488;28;20094;-76
2022/10/11 11:11:55;;;;;;;4.72;4.25;;;15.60;99.90;;;;;;4978960;28;20101;-76
2022/10/11 11:14:24;;;;;;;0.22;0.22;;;15.70;99.90;;;;;;4920956;29;20028;-85
2022/10/11 11:17:22;;;;;;;2.08;1.98;;;15.80;99.90;;;;;;4920732;29;20059;-76
2022/10/11 11:20:11;;;;;;;2.58;2.38;;;15.90;99.90;;;;;;4919529;29;20040;-76
2022/10/11 11:23:07;;;;;;;0.65;0.65;;;16.00;99.90;;;;;;4920756;29;20166;-82
2022/10/11 11:25:49;;;;;;;4.50;4.18;;;16.00;99.90;;;;;;4919622;29;20082;-75
2022/10/11 11:28:53;;;;;;;0.52;0.52;;;16.00;99.90;;;;;;4920032;29;20537;-84
2022/10/11 11:31:43;;;;;;;1.77;1.67;;;16.00;99.90;;;;;;4902437;29;20052;-83
2022/10/11 11:34:18;;;;;;;8.85;7.15;;;16.10;99.90;;;;;;4904884;29;20060;-84
2022/10/11 11:36:56;;;;;;;2.22;2.13;;;16.00;99.90;;;;;;4903889;29;20234;-78
2022/10/11 11:39:38;;;;;;;0.25;0.25;;;16.00;99.90;;;;;;4903450;29;20028;-87
2022/10/11 11:42:35;;;;;;;0.30;0.30;;;16.10;99.90;;;;;;4903336;29;20032;-82
2022/10/11 11:45:14;;;;;;;1.95;1.80;;;16.00;99.90;;;;;;4962513;28;20108;-79
2022/10/11 11:47:45;;;;;;;0.28;0.28;;;16.20;99.90;;;;;;5000016;28;20316;-79
2022/10/11 11:50:22;;;;;;;7.00;6.60;;;16.10;99.90;;;;;;4982829;28;20567;-76
2022/10/11 11:52:55;;;;;;;0.20;0.20;;;16.00;99.90;;;;;;4999136;28;20030;-80
2022/10/11 11:55:32;;;;;;;0.50;0.50;;;15.90;99.90;;;;;;4999163;28;20592;-76
2022/10/11 11:58:28;;;;;;;7.25;6.85;;;16.00;99.90;;;;;;4999042;28;20338;-76
2022/10/11 12:01:12;;;;;;;1.10;1.10;;;16.00;99.90;;;;;;4998927;28;20109;-77
2022/10/11 12:03:47;;;;;;;2.95;2.75;;;16.00;99.90;;;;;;4982503;28;20030;-77
2022/10/11 12:06:13;;;;;;;0.85;0.85;;;16.10;99.90;;;;;;4998993;28;20137;-75
2022/10/11 12:08:42;;;;;;;0.50;0.50;;;16.20;99.90;;;;;;5012904;28;20150;-76
2022/10/11 12:11:24;;;;;;;0.43;0.43;;;16.20;99.90;;;;;;5038950;28;20052;-77
2022/10/11 12:13:51;;;;;;;2.33;2.22;;;16.30;99.90;;;;;;5041340;28;20369;-77
2022/10/11 12:16:18;;;;;;;0.20;0.20;;;16.30;99.90;;;;;;5039666;28;20105;-75
2022/10/11 12:18:56;;;;;;;5.07;3.80;;;16.20;99.90;;;;;;5039430;28;20029;-76
2022/10/11 12:21:28;;;;;;;4.55;4.03;;;16.20;99.90;;;;;;5040361;28;20043;-77
2022/10/11 12:23:57;;;;;;;4.10;3.90;;;16.20;99.90;;;;;;5038465;28;20128;-76
2022/10/11 12:26:59;;;;;;;4.22;3.92;;;16.20;99.90;;;;;;5022392;28;20420;-77
2022/10/11 12:29:47;;;;;;;6.78;6.30;;;16.20;99.90;;;;;;4979525;28;20043;-79
2022/10/11 12:32:33;;;;;;;0.80;0.80;;;16.30;99.90;;;;;;4981277;28;20034;-83
2022/10/11 12:35:32;;;;;;;1.50;1.48;;;16.40;99.90;;;;;;4965401;28;20433;-82
2022/10/11 12:38:18;;;;;;;2.72;2.53;;;16.50;99.90;;;;;;4921689;29;20043;-77
2022/10/11 12:40:46;;;;;;;0.40;0.40;;;16.60;99.90;;;;;;4903973;29;20119;-84
2022/10/11 12:43:14;;;;;;;4.75;4.45;;;16.50;99.90;;;;;;4904263;29;20334;-84
2022/10/11 12:45:46;;;;;;;0.35;0.35;;;16.70;99.90;;;;;;4904496;29;20276;-81
2022/10/11 12:48:30;;;;;;;2.53;2.42;;;16.60;99.90;;;;;;4920348;29;20427;-79
2022/10/11 12:50:56;;;;;;;2.60;2.50;;;16.50;99.90;;;;;;4919180;29;20404;-78
2022/10/11 12:53:36;;;;;;;1.52;1.42;;;16.40;99.90;;;;;;4903967;29;20358;-79
2022/10/11 12:56:12;;;;;;;0.35;0.35;;;16.40;99.90;;;;;;4904019;29;20285;-78
2022/10/11 12:58:40;;;;;;;0.95;0.90;;;16.30;99.90;;;;;;4918475;29;20047;-76
2022/10/11 13:01:16;;;;;;;0.68;0.68;;;16.30;99.90;;;;;;4919306;29;20587;-76
2022/10/11 13:03:58;;;;;;;0.40;0.40;;;16.30;99.90;;;;;;4918288;29;20043;-79
2022/10/11 13:06:29;;;;;;;6.90;4.70;;;16.30;99.90;;;;;;4962224;28;20057;-81
2022/10/11 13:09:09;;;;;;;2.15;2.05;;;16.70;99.90;;;;;;4977420;28;20038;-77
2022/10/11 13:11:40;;;;;;;0.70;0.70;;;16.20;99.90;;;;;;4976756;28;20114;-80
2022/10/11 13:14:07;;;;;;;2.67;2.58;;;16.30;99.90;;;;;;4992377;28;20051;-76
2022/10/11 13:17:04;;;;;;;2.95;2.75;;;16.20;99.90;;;;;;5038736;28;20033;-76